createdAt,value
2023-02-12T00:00:08.610Z,439.9
2023-02-12T00:01:10.620Z,439.4
2023-02-12T00:02:13.348Z,439.6
2023-02-12T00:03:15.568Z,439.4
2023-02-12T00:04:18.074Z,439.6
2023-02-12T00:05:20.314Z,439.9
2023-02-12T00:06:22.930Z,440.2
2023-02-12T00:07:25.157Z,440.3
2023-02-12T00:08:27.684Z,440
2023-02-12T00:09:29.980Z,440.3
2023-02-12T00:10:32.207Z,440.1
2023-02-12T00:11:34.829Z,440
2023-02-12T00:12:36.757Z,439.6
2023-02-12T00:13:39.355Z,439.7
2023-02-12T00:14:41.932Z,439.4
2023-02-12T00:15:44.844Z,439.2
2023-02-12T00:16:47.378Z,439
2023-02-12T00:17:49.626Z,439.2
2023-02-12T00:18:51.570Z,439
2023-02-12T00:19:54.093Z,439.4
2023-02-12T00:20:56.758Z,439.5
2023-02-12T00:21:59.309Z,439.7
2023-02-12T00:23:01.544Z,440.1
2023-02-12T00:24:03.781Z,440
2023-02-12T00:25:05.995Z,439.7
2023-02-12T00:26:08.500Z,439.4
2023-02-12T00:27:10.997Z,439.9
2023-02-12T00:28:13.641Z,439.6
2023-02-12T00:29:16.286Z,440.1
2023-02-12T00:30:18.783Z,440
2023-02-12T00:31:22.345Z,440.2
2023-02-12T00:32:24.683Z,440.1
2023-02-12T00:33:26.915Z,439.9
2023-02-12T00:34:28.847Z,439.8
2023-02-12T00:35:31.381Z,439.5
2023-02-12T00:36:33.949Z,439.7
2023-02-12T00:37:36.498Z,439.4
2023-02-12T00:38:38.717Z,439.1
2023-02-12T00:39:41.322Z,439.3
2023-02-12T00:40:43.821Z,439.4
2023-02-12T00:41:46.181Z,439.2
2023-02-12T00:42:48.680Z,439.6
2023-02-12T00:43:51.184Z,439.5
2023-02-12T00:44:53.696Z,439.4
2023-02-12T00:45:59.084Z,439.6
2023-02-12T00:47:01.531Z,439.9
2023-02-12T00:48:04.034Z,440.1
2023-02-12T00:49:06.257Z,440.1
2023-02-12T00:50:08.508Z,440.2
2023-02-12T00:51:11.109Z,440.9
2023-02-12T00:52:13.676Z,440.8
2023-02-12T00:53:15.795Z,441
2023-02-12T00:54:17.731Z,440.5
2023-02-12T00:55:19.710Z,440.8
2023-02-12T00:56:22.228Z,440.5
2023-02-12T00:57:24.749Z,440.6
2023-02-12T00:58:27.025Z,440.3
2023-02-12T00:59:29.265Z,440.3
2023-02-12T01:00:31.778Z,439.8
2023-02-12T01:01:34.320Z,440
2023-02-12T01:02:36.610Z,439.6
2023-02-12T01:03:38.880Z,439.6
2023-02-12T01:04:41.077Z,439.8
2023-02-12T01:05:43.612Z,439.6
2023-02-12T01:06:46.098Z,439.9
2023-02-12T01:07:48.616Z,439.6
2023-02-12T01:08:50.890Z,439.7
2023-02-12T01:09:53.416Z,439.7
2023-02-12T01:10:55.654Z,439.9
2023-02-12T01:11:57.915Z,439.9
2023-02-12T01:13:00.165Z,440
2023-02-12T01:14:02.382Z,439.9
2023-02-12T01:15:04.921Z,439.9
2023-02-12T01:16:07.892Z,439.9
2023-02-12T01:17:10.464Z,440
2023-02-12T01:18:13.080Z,439.9
2023-02-12T01:19:15.838Z,440.6
2023-02-12T01:20:18.074Z,440.8
2023-02-12T01:21:20.358Z,440.7
2023-02-12T01:22:22.581Z,440.3
2023-02-12T01:23:25.127Z,440.4
2023-02-12T01:24:27.695Z,440.6
2023-02-12T01:25:30.374Z,441.1
2023-02-12T01:26:32.603Z,441.7
2023-02-12T01:27:34.858Z,441.7
2023-02-12T01:28:37.408Z,441.7
2023-02-12T01:29:39.959Z,441.5
2023-02-12T01:30:42.771Z,441.3
2023-02-12T01:31:45.867Z,440.7
2023-02-12T01:32:48.154Z,440.3
2023-02-12T01:33:50.139Z,440.5
2023-02-12T01:34:52.368Z,440.2
2023-02-12T01:35:56.864Z,440
2023-02-12T01:36:59.489Z,439.6
2023-02-12T01:38:02.002Z,439.6
2023-02-12T01:39:04.647Z,439
2023-02-12T01:40:06.907Z,439.1
2023-02-12T01:41:09.136Z,439
2023-02-12T01:42:11.062Z,439.1
2023-02-12T01:43:13.631Z,439.5
2023-02-12T01:44:15.905Z,439.1
2023-02-12T01:45:18.405Z,438.9
2023-02-12T01:46:21.265Z,439
2023-02-12T01:47:23.798Z,439
2023-02-12T01:48:26.036Z,438.9
2023-02-12T01:49:28.297Z,439.1
2023-02-12T01:50:30.590Z,438.4
2023-02-12T01:51:32.545Z,439.4
2023-02-12T01:52:34.764Z,439
2023-02-12T01:53:37.253Z,439.2
2023-02-12T01:54:39.564Z,439.7
2023-02-12T01:55:42.128Z,439.7
2023-02-12T01:56:44.672Z,439.8
2023-02-12T01:57:47.296Z,439.4
2023-02-12T01:58:49.502Z,439.6
2023-02-12T01:59:52.027Z,439.4
2023-02-12T02:00:54.257Z,439.1
2023-02-12T02:01:57.325Z,439.3
2023-02-12T02:03:00.337Z,439.5
2023-02-12T02:04:02.620Z,439.3
2023-02-12T02:05:04.908Z,439.6
2023-02-12T02:06:07.386Z,439.4
2023-02-12T02:07:09.629Z,439.3
2023-02-12T02:08:11.843Z,439.4
2023-02-12T02:09:14.332Z,439.6
2023-02-12T02:10:16.872Z,439.3
2023-02-12T02:11:19.141Z,439.9
2023-02-12T02:12:21.654Z,439.7
2023-02-12T02:13:24.148Z,439.8
2023-02-12T02:14:26.368Z,439.5
2023-02-12T02:15:28.896Z,439.8
2023-02-12T02:16:31.874Z,439.5
2023-02-12T02:17:34.436Z,440.2
2023-02-12T02:18:36.673Z,440.2
2023-02-12T02:19:38.915Z,440
2023-02-12T02:20:41.468Z,440
2023-02-12T02:21:43.981Z,440.3
2023-02-12T02:22:45.932Z,440.1
2023-02-12T02:23:48.142Z,440.2
2023-02-12T02:24:50.379Z,440.3
2023-02-12T02:25:53.390Z,440.6
2023-02-12T02:28:02.404Z,440.6
2023-02-12T02:29:04.929Z,440.4
2023-02-12T02:30:07.451Z,440.5
2023-02-12T02:31:10.427Z,440.4
2023-02-12T02:32:13.308Z,440.2
2023-02-12T02:33:15.523Z,439.9
2023-02-12T02:34:18.033Z,440.6
2023-02-12T02:35:20.550Z,440.6
2023-02-12T02:37:28.580Z,440.4
2023-02-12T02:38:30.850Z,440.3
2023-02-12T02:39:33.344Z,440.6
2023-02-12T02:40:36.079Z,440.7
2023-02-12T02:41:38.593Z,440.6
2023-02-12T02:42:40.841Z,440.8
2023-02-12T02:43:43.061Z,440.9
2023-02-12T02:44:45.572Z,441
2023-02-12T02:45:47.544Z,441.3
2023-02-12T02:46:50.507Z,441
2023-02-12T02:47:53.069Z,441.6
2023-02-12T02:48:55.564Z,441.6
2023-02-12T02:49:57.479Z,441.3
2023-02-12T02:50:59.988Z,441.1
2023-02-12T02:52:02.515Z,441.5
2023-02-12T02:53:05.057Z,441.3
2023-02-12T02:54:07.554Z,441.4
2023-02-12T02:55:10.059Z,441.6
2023-02-12T02:56:12.568Z,441.9
2023-02-12T02:57:15.121Z,441.8
2023-02-12T02:58:17.619Z,441.6
2023-02-12T02:59:20.119Z,441.7
2023-02-12T03:00:22.607Z,441.7
2023-02-12T03:01:25.712Z,442.4
2023-02-12T03:02:28.290Z,442.3
2023-02-12T03:03:30.843Z,442.3
2023-02-12T03:04:32.814Z,442.3
2023-02-12T03:05:35.324Z,442.1
2023-02-12T03:06:37.831Z,442.1
2023-02-12T03:07:40.362Z,442.1
2023-02-12T03:08:42.605Z,441.9
2023-02-12T03:09:45.112Z,441.5
2023-02-12T03:10:47.318Z,441.8
2023-02-12T03:11:49.816Z,441.6
2023-02-12T03:12:52.084Z,441.7
2023-02-12T03:13:54.294Z,441.7
2023-02-12T03:14:56.802Z,441.7
2023-02-12T03:16:00.354Z,441.8
2023-02-12T03:17:02.321Z,441.6
2023-02-12T03:18:04.589Z,441.7
2023-02-12T03:19:07.101Z,441.1
2023-02-12T03:20:09.620Z,441
2023-02-12T03:21:12.109Z,441.1
2023-02-12T03:22:14.337Z,440.8
2023-02-12T03:23:16.902Z,440.5
2023-02-12T03:24:19.156Z,440.3
2023-02-12T03:25:21.644Z,440.3
2023-02-12T03:26:24.163Z,440.3
2023-02-12T03:27:26.679Z,440.2
2023-02-12T03:28:28.938Z,440.1
2023-02-12T03:29:31.488Z,439.8
2023-02-12T03:30:33.765Z,440
2023-02-12T03:31:36.609Z,440
2023-02-12T03:32:38.864Z,439.9
2023-02-12T03:33:41.137Z,439.8
2023-02-12T03:34:43.619Z,439.7
2023-02-12T03:35:45.844Z,439.7
2023-02-12T03:36:48.392Z,439.4
2023-02-12T03:37:50.880Z,439.2
2023-02-12T03:38:53.418Z,439.6
2023-02-12T03:39:55.936Z,439.1
2023-02-12T03:40:58.468Z,439.1
2023-02-12T03:42:01.019Z,439
2023-02-12T03:43:03.522Z,439.4
2023-02-12T03:44:06.082Z,439.4
2023-02-12T03:45:08.676Z,439.3
2023-02-12T03:46:11.710Z,439.4
2023-02-12T03:47:14.266Z,439.7
2023-02-12T03:48:16.507Z,439.6
2023-02-12T03:49:19.049Z,439.6
2023-02-12T03:50:21.273Z,439.9
2023-02-12T03:51:23.804Z,439.9
2023-02-12T03:52:25.780Z,439.8
2023-02-12T03:53:28.292Z,439.9
2023-02-12T03:54:30.809Z,439.8
2023-02-12T03:55:33.333Z,439.9
2023-02-12T03:56:35.813Z,440.1
2023-02-12T03:57:38.293Z,439.8
2023-02-12T03:58:40.787Z,440.2
2023-02-12T03:59:43.034Z,440.4
2023-02-12T04:00:45.526Z,439.9
2023-02-12T04:01:48.678Z,440
2023-02-12T04:02:51.034Z,439.9
2023-02-12T04:03:53.454Z,439.8
2023-02-12T04:04:56.056Z,439.9
2023-02-12T04:05:59.188Z,440
2023-02-12T04:07:01.417Z,439.5
2023-02-12T04:08:03.905Z,439.7
2023-02-12T04:09:06.397Z,439.6
2023-02-12T04:10:08.636Z,439.1
2023-02-12T04:11:11.165Z,438.8
2023-02-12T04:12:13.647Z,439
2023-02-12T04:13:15.864Z,438.6
2023-02-12T04:14:18.626Z,438.6
2023-02-12T04:15:21.832Z,438.9
2023-02-12T04:16:24.592Z,438.3
2023-02-12T04:17:27.976Z,438.5
2023-02-12T04:18:30.479Z,438.3
2023-02-12T04:19:32.695Z,438.4
2023-02-12T04:20:34.679Z,438
2023-02-12T04:21:37.170Z,437.8
2023-02-12T04:22:39.660Z,437.6
2023-02-12T04:23:41.931Z,437.5
2023-02-12T04:24:44.501Z,437.9
2023-02-12T04:25:46.733Z,437.7
2023-02-12T04:26:49.263Z,437.9
2023-02-12T04:27:51.762Z,438
2023-02-12T04:28:54.289Z,438.1
2023-02-12T04:29:56.220Z,438.2
2023-02-12T04:30:59.455Z,438.4
2023-02-12T04:32:01.754Z,438.3
2023-02-12T04:33:03.776Z,438.1
2023-02-12T04:34:05.718Z,437.9
2023-02-12T04:35:07.957Z,437.8
2023-02-12T04:36:10.516Z,437.5
2023-02-12T04:37:13.010Z,437.4
2023-02-12T04:38:14.672Z,437.3
2023-02-12T04:39:16.906Z,436.8
2023-02-12T04:40:19.176Z,437
2023-02-12T04:41:21.418Z,436.8
2023-02-12T04:42:23.650Z,436.6
2023-02-12T04:43:26.157Z,436.4
2023-02-12T04:44:28.652Z,436.7
2023-02-12T04:45:31.162Z,436.7
2023-02-12T04:46:34.163Z,436.6
2023-02-12T04:47:36.706Z,437
2023-02-12T04:48:39.240Z,436.9
2023-02-12T04:49:41.743Z,436.5
2023-02-12T04:50:44.394Z,435.9
2023-02-12T04:51:46.974Z,436.5
2023-02-12T04:52:49.238Z,436.3
2023-02-12T04:53:51.736Z,436.2
2023-02-12T04:54:54.255Z,436.7
2023-02-12T04:55:58.782Z,436.1
2023-02-12T04:57:01.242Z,436.5
2023-02-12T04:58:03.808Z,436.1
2023-02-12T04:59:06.064Z,436.1
2023-02-12T05:00:08.580Z,436
2023-02-12T05:01:11.692Z,435.7
2023-02-12T05:02:13.980Z,435.7
2023-02-12T05:03:16.217Z,436.1
2023-02-12T05:04:18.756Z,436.2
2023-02-12T05:05:21.660Z,436.7
2023-02-12T05:06:24.191Z,436.3
2023-02-12T05:07:26.512Z,436.8
2023-02-12T05:08:28.776Z,436.8
2023-02-12T05:09:30.986Z,436.8
2023-02-12T05:10:33.477Z,437.1
2023-02-12T05:11:35.713Z,437
2023-02-12T05:12:38.241Z,437.5
2023-02-12T05:13:40.776Z,437.5
2023-02-12T05:14:43.284Z,437
2023-02-12T05:15:45.881Z,436.9
2023-02-12T05:16:48.146Z,436.7
2023-02-12T05:17:50.718Z,436.3
2023-02-12T05:18:52.390Z,436.4
2023-02-12T05:19:54.907Z,435.8
2023-02-12T05:20:58.427Z,435.7
2023-02-12T05:22:00.968Z,435.7
2023-02-12T05:23:02.962Z,435.5
2023-02-12T05:24:05.283Z,435.3
2023-02-12T05:25:07.787Z,435.2
2023-02-12T05:26:09.733Z,435
2023-02-12T05:27:12.248Z,435.5
2023-02-12T05:28:14.754Z,435
2023-02-12T05:29:17.317Z,435.1
2023-02-12T05:30:19.548Z,435.3
2023-02-12T05:31:24.376Z,435.3
2023-02-12T05:32:26.929Z,435.5
2023-02-12T05:33:29.460Z,435.1
2023-02-12T05:34:31.976Z,435.2
2023-02-12T05:35:34.498Z,435
2023-02-12T05:36:36.993Z,435.1
2023-02-12T05:37:39.487Z,434.8
2023-02-12T05:38:42.050Z,434.3
2023-02-12T05:39:44.304Z,434
2023-02-12T05:40:46.827Z,433.8
2023-02-12T05:41:48.474Z,433.8
2023-02-12T05:42:50.972Z,433.9
2023-02-12T05:43:53.247Z,434
2023-02-12T05:44:55.772Z,433.9
2023-02-12T05:45:59.719Z,434.2
2023-02-12T05:47:02.262Z,434
2023-02-12T05:48:04.782Z,433.8
2023-02-12T05:49:07.033Z,434.3
2023-02-12T05:50:09.267Z,434.3
2023-02-12T05:51:11.773Z,434.1
2023-02-12T05:52:14.307Z,434.3
2023-02-12T05:53:16.226Z,434.2
2023-02-12T05:54:18.791Z,434.2
2023-02-12T05:55:21.296Z,434.3
2023-02-12T05:56:23.804Z,434.3
2023-02-12T05:57:26.021Z,434.2
2023-02-12T05:58:28.267Z,434.7
2023-02-12T05:59:30.833Z,434.6
2023-02-12T06:00:33.393Z,434.6
2023-02-12T06:01:35.911Z,434.3
2023-02-12T06:02:38.782Z,434
2023-02-12T06:03:41.329Z,434.5
2023-02-12T06:04:43.580Z,434.2
2023-02-12T06:05:46.085Z,434.4
2023-02-12T06:06:48.034Z,434.7
2023-02-12T06:07:50.251Z,434.5
2023-02-12T06:08:52.825Z,434.4
2023-02-12T06:09:55.105Z,434.2
2023-02-12T06:10:57.627Z,434.5
2023-02-12T06:11:59.854Z,434.3
2023-02-12T06:13:02.379Z,434.1
2023-02-12T06:14:04.304Z,434
2023-02-12T06:15:06.886Z,433.9
2023-02-12T06:16:09.883Z,433.6
2023-02-12T06:17:12.455Z,433.8
2023-02-12T06:18:14.414Z,433.2
2023-02-12T06:19:16.999Z,433.4
2023-02-12T06:20:19.254Z,432.8
2023-02-12T06:21:21.764Z,433.2
2023-02-12T06:22:24.278Z,433.2
2023-02-12T06:23:26.286Z,433.3
2023-02-12T06:24:28.781Z,432.9
2023-02-12T06:25:31.365Z,433
2023-02-12T06:26:33.886Z,432.7
2023-02-12T06:27:36.144Z,432.8
2023-02-12T06:28:39.286Z,432.5
2023-02-12T06:29:41.571Z,432
2023-02-12T06:30:44.374Z,432.3
2023-02-12T06:31:47.784Z,431.8
2023-02-12T06:32:50.093Z,431.9
2023-02-12T06:33:52.664Z,431.7
2023-02-12T06:34:54.614Z,431.8
2023-02-12T06:35:58.738Z,431.7
2023-02-12T06:37:00.706Z,431.5
2023-02-12T06:38:03.223Z,431.2
2023-02-12T06:39:05.826Z,431.7
2023-02-12T06:40:07.803Z,431.5
2023-02-12T06:41:10.412Z,431.4
2023-02-12T06:42:12.644Z,431.7
2023-02-12T06:43:14.604Z,431.1
2023-02-12T06:44:17.155Z,431.4
2023-02-12T06:45:19.351Z,431.4
2023-02-12T06:46:22.292Z,431.4
2023-02-12T06:47:24.319Z,431.2
2023-02-12T06:48:26.830Z,431.1
2023-02-12T06:49:29.332Z,430.6
2023-02-12T06:50:31.844Z,430.8
2023-02-12T06:51:34.111Z,430.9
2023-02-12T06:52:36.375Z,430.7
2023-02-12T06:53:38.888Z,430.9
2023-02-12T06:54:41.105Z,431.2
2023-02-12T06:55:43.327Z,430.8
2023-02-12T06:56:45.632Z,430.9
2023-02-12T06:57:47.873Z,430.8
2023-02-12T06:58:50.111Z,431
2023-02-12T06:59:52.615Z,431.1
2023-02-12T07:00:55.169Z,431.3
2023-02-12T07:01:57.730Z,430.8
2023-02-12T07:03:00.252Z,430.7
2023-02-12T07:04:03.604Z,431.3
2023-02-12T07:05:05.336Z,431.4
2023-02-12T07:06:07.893Z,431.2
2023-02-12T07:07:10.428Z,431.2
2023-02-12T07:08:12.940Z,431.3
2023-02-12T07:09:15.446Z,431.2
2023-02-12T07:10:17.946Z,430.9
2023-02-12T07:11:20.146Z,431.1
2023-02-12T07:12:22.462Z,430.7
2023-02-12T07:13:24.976Z,430.8
2023-02-12T07:14:26.908Z,430.9
2023-02-12T07:15:28.835Z,430.9
2023-02-12T07:16:31.736Z,430.9
2023-02-12T07:17:34.300Z,430.8
2023-02-12T07:18:36.579Z,430.8
2023-02-12T07:19:38.535Z,431
2023-02-12T07:20:40.467Z,430.9
2023-02-12T07:21:42.712Z,431
2023-02-12T07:22:45.273Z,430.8
2023-02-12T07:23:52.300Z,430.8
2023-02-12T07:24:54.809Z,430.6
2023-02-12T07:25:58.855Z,430.6
2023-02-12T07:27:01.073Z,430.9
2023-02-12T07:28:03.560Z,430.6
2023-02-12T07:29:06.072Z,430.6
2023-02-12T07:30:08.648Z,431
2023-02-12T07:31:12.070Z,430.4
2023-02-12T07:32:15.367Z,430.7
2023-02-12T07:33:17.909Z,430.9
2023-02-12T07:34:20.451Z,430.8
2023-02-12T07:35:22.952Z,431
2023-02-12T07:36:24.620Z,430.7
2023-02-12T07:37:27.184Z,430.5
2023-02-12T07:38:29.153Z,431.2
2023-02-12T07:39:31.663Z,431.2
2023-02-12T07:40:33.877Z,431.6
2023-02-12T07:41:36.144Z,431.5
2023-02-12T07:42:38.655Z,431.4
2023-02-12T07:43:41.264Z,431.5
2023-02-12T07:44:43.787Z,431.5
2023-02-12T07:45:46.189Z,431.8
2023-02-12T07:46:50.464Z,431.7
2023-02-12T07:47:52.957Z,431.8
2023-02-12T07:48:55.485Z,431.6
2023-02-12T07:49:58.122Z,431.7
2023-02-12T07:51:00.648Z,431.9
2023-02-12T07:52:03.163Z,431.7
2023-02-12T07:53:05.405Z,431.8
2023-02-12T07:54:08.243Z,432.1
2023-02-12T07:55:10.796Z,432.4
2023-02-12T07:56:13.376Z,432
2023-02-12T07:57:15.340Z,432.1
2023-02-12T07:58:17.587Z,432.4
2023-02-12T07:59:19.494Z,432.3
2023-02-12T08:00:22.041Z,432
2023-02-12T08:01:24.609Z,432
2023-02-12T08:02:27.484Z,432.2
2023-02-12T08:03:30.094Z,432.1
2023-02-12T08:04:33.298Z,432.1
2023-02-12T08:05:35.850Z,431.9
2023-02-12T08:06:38.349Z,432
2023-02-12T08:07:40.855Z,431.8
2023-02-12T08:08:43.386Z,431.9
2023-02-12T08:09:45.907Z,431.9
2023-02-12T08:10:48.267Z,432.1
2023-02-12T08:11:50.507Z,432.1
2023-02-12T08:12:53.022Z,432.2
2023-02-12T08:13:54.975Z,432.2
2023-02-12T08:14:57.269Z,432.1
2023-02-12T08:16:00.277Z,432.1
2023-02-12T08:17:02.834Z,432.3
2023-02-12T08:18:04.868Z,432.2
2023-02-12T08:20:12.379Z,432.5
2023-02-12T08:21:14.922Z,432.3
2023-02-12T08:22:17.148Z,432.5
2023-02-12T08:23:19.647Z,432.7
2023-02-12T08:24:22.408Z,432.6
2023-02-12T08:25:24.986Z,432.7
2023-02-12T08:26:27.522Z,432.6
2023-02-12T08:27:29.757Z,432.5
2023-02-12T08:28:32.547Z,432.5
2023-02-12T08:29:35.065Z,432.3
2023-02-12T08:30:37.763Z,431.7
2023-02-12T08:31:40.123Z,432.3
2023-02-12T08:32:42.636Z,432.2
2023-02-12T08:33:45.164Z,432.1
2023-02-12T08:34:47.418Z,432.3
2023-02-12T08:35:49.949Z,432.1
2023-02-12T08:36:52.477Z,431.7
2023-02-12T08:37:54.976Z,431.9
2023-02-12T08:38:56.911Z,431.9
2023-02-12T08:39:59.156Z,432.5
2023-02-12T08:41:01.908Z,432.4
2023-02-12T08:42:04.485Z,432.5
2023-02-12T08:43:06.989Z,432.3
2023-02-12T08:44:09.212Z,432.3
2023-02-12T08:45:11.530Z,432.4
2023-02-12T08:46:14.498Z,432.5
2023-02-12T08:47:16.739Z,432.6
2023-02-12T08:48:19.279Z,432.4
2023-02-12T08:49:21.243Z,432.9
2023-02-12T08:50:23.477Z,432.5
2023-02-12T08:51:26.024Z,432.6
2023-02-12T08:52:28.577Z,433
2023-02-12T08:53:31.116Z,432.3
2023-02-12T08:54:33.796Z,432.5
2023-02-12T08:55:36.079Z,432.4
2023-02-12T08:56:38.072Z,432.6
2023-02-12T08:57:40.618Z,432.5
2023-02-12T08:58:43.122Z,432.4
2023-02-12T08:59:45.223Z,432.6
2023-02-12T09:00:47.453Z,432.7
2023-02-12T09:01:50.046Z,432.9
2023-02-12T09:02:52.784Z,432.9
2023-02-12T09:03:55.320Z,433
2023-02-12T09:04:57.541Z,432.7
2023-02-12T09:06:00.366Z,432.5
2023-02-12T09:07:02.951Z,432.5
2023-02-12T09:08:05.646Z,432.6
2023-02-12T09:09:07.898Z,432.7
2023-02-12T09:10:10.120Z,432.3
2023-02-12T09:11:12.347Z,433
2023-02-12T09:12:14.862Z,432.7
2023-02-12T09:13:17.093Z,432.3
2023-02-12T09:14:19.323Z,432.6
2023-02-12T09:15:21.824Z,432.5
2023-02-12T09:16:24.132Z,432.6
2023-02-12T09:17:26.702Z,432.9
2023-02-12T09:18:29.218Z,433.1
2023-02-12T09:19:31.181Z,432.8
2023-02-12T09:20:33.408Z,432.6
2023-02-12T09:21:35.946Z,432.7
2023-02-12T09:22:38.228Z,432.8
2023-02-12T09:23:40.490Z,432.9
2023-02-12T09:24:43.003Z,432.6
2023-02-12T09:25:44.663Z,432.3
2023-02-12T09:26:47.155Z,432.1
2023-02-12T09:27:49.418Z,432.2
2023-02-12T09:28:52.006Z,432.1
2023-02-12T09:29:54.204Z,432
2023-02-12T09:30:57.248Z,431.5
2023-02-12T09:32:00.148Z,431.8
2023-02-12T09:33:02.556Z,432
2023-02-12T09:34:05.152Z,431.9
2023-02-12T09:35:07.656Z,431.7
2023-02-12T09:36:09.886Z,431.9
2023-02-12T09:37:12.436Z,431.7
2023-02-12T09:38:14.676Z,431.4
2023-02-12T09:39:16.732Z,431.8
2023-02-12T09:40:18.949Z,431.9
2023-02-12T09:41:20.875Z,432.3
2023-02-12T09:42:23.110Z,432.1
2023-02-12T09:43:25.660Z,431.9
2023-02-12T09:44:28.218Z,431.8
2023-02-12T09:45:30.486Z,432.2
2023-02-12T09:46:33.551Z,432.4
2023-02-12T09:47:35.533Z,431.9
2023-02-12T09:48:38.459Z,431.9
2023-02-12T09:49:40.741Z,431.7
2023-02-12T09:50:43.265Z,431.9
2023-02-12T09:51:45.808Z,432.2
2023-02-12T09:52:48.050Z,431.7
2023-02-12T09:53:50.334Z,431.7
2023-02-12T09:54:52.883Z,432.1
2023-02-12T09:55:56.993Z,431.7
2023-02-12T09:56:59.411Z,431.8
2023-02-12T09:58:01.952Z,431.8
2023-02-12T09:59:03.938Z,432.2
2023-02-12T10:00:06.524Z,432.3
2023-02-12T10:01:09.108Z,431.8
2023-02-12T10:02:11.631Z,431.7
2023-02-12T10:03:14.141Z,431.5
2023-02-12T10:04:16.926Z,432
2023-02-12T10:05:19.170Z,432.3
2023-02-12T10:06:21.396Z,431.8
2023-02-12T10:07:23.914Z,431.8
2023-02-12T10:08:26.989Z,431.8
2023-02-12T10:09:29.561Z,432.2
2023-02-12T10:10:31.579Z,431.9
2023-02-12T10:11:34.096Z,432.1
2023-02-12T10:12:36.328Z,431.9
2023-02-12T10:13:38.635Z,431.8
2023-02-12T10:14:41.196Z,431.8
2023-02-12T10:15:43.971Z,431.9
2023-02-12T10:16:46.483Z,431.5
2023-02-12T10:17:48.720Z,431.7
2023-02-12T10:18:50.972Z,431.2
2023-02-12T10:19:59.199Z,431.3
2023-02-12T10:21:00.736Z,431.5
2023-02-12T10:22:03.284Z,431.5
2023-02-12T10:23:05.825Z,431.2
2023-02-12T10:24:07.843Z,431.4
2023-02-12T10:25:09.846Z,431.5
2023-02-12T10:26:12.087Z,431.5
2023-02-12T10:27:14.604Z,431.5
2023-02-12T10:28:17.068Z,431.7
2023-02-12T10:29:19.305Z,431.9
2023-02-12T10:30:21.908Z,431.8
2023-02-12T10:31:25.239Z,431.7
2023-02-12T10:32:27.612Z,431.7
2023-02-12T10:33:30.217Z,432.3
2023-02-12T10:34:32.432Z,432.4
2023-02-12T10:35:34.674Z,432.1
2023-02-12T10:36:37.142Z,432.3
2023-02-12T10:37:39.387Z,431.9
2023-02-12T10:38:41.893Z,432.1
2023-02-12T10:39:44.136Z,432.1
2023-02-12T10:40:46.438Z,432.1
2023-02-12T10:41:48.712Z,432
2023-02-12T10:42:50.954Z,432.2
2023-02-12T10:43:53.203Z,432.3
2023-02-12T10:44:55.462Z,432.2
2023-02-12T10:45:59.464Z,432.5
2023-02-12T10:47:02.443Z,432.4
2023-02-12T10:48:04.378Z,432.7
2023-02-12T10:49:06.897Z,432.4
2023-02-12T10:50:09.392Z,432.4
2023-02-12T10:51:11.914Z,432.7
2023-02-12T10:52:13.862Z,432.6
2023-02-12T10:53:16.375Z,432.8
2023-02-12T10:54:18.316Z,432.8
2023-02-12T10:55:20.817Z,433
2023-02-12T10:56:23.079Z,433.4
2023-02-12T10:57:25.613Z,433.4
2023-02-12T10:58:28.311Z,433.3
2023-02-12T10:59:30.830Z,433.6
2023-02-12T11:00:33.356Z,433.1
2023-02-12T11:01:36.261Z,433.4
2023-02-12T11:02:38.537Z,432.8
2023-02-12T11:03:41.036Z,433
2023-02-12T11:04:43.750Z,433.1
2023-02-12T11:05:46.004Z,433.4
2023-02-12T11:06:48.529Z,433.4
2023-02-12T11:07:50.508Z,433.8
2023-02-12T11:08:53.011Z,433.9
2023-02-12T11:09:54.961Z,433.8
2023-02-12T11:10:57.462Z,433.7
2023-02-12T11:12:00.005Z,433.6
2023-02-12T11:13:02.291Z,433.7
2023-02-12T11:14:04.870Z,433.9
2023-02-12T11:15:07.147Z,433.5
2023-02-12T11:16:09.445Z,433.5
2023-02-12T11:17:12.001Z,433.8
2023-02-12T11:18:14.504Z,433.9
2023-02-12T11:19:16.722Z,434
2023-02-12T11:20:18.684Z,434.1
2023-02-12T11:21:20.362Z,434.3
2023-02-12T11:22:22.607Z,433.6
2023-02-12T11:23:25.056Z,433.9
2023-02-12T11:24:27.291Z,434.4
2023-02-12T11:25:29.551Z,434
2023-02-12T11:26:31.502Z,434.5
2023-02-12T11:27:34.029Z,434.3
2023-02-12T11:28:37.468Z,434
2023-02-12T11:29:40.042Z,434.6
2023-02-12T11:30:42.724Z,434.3
2023-02-12T11:31:45.904Z,434.8
2023-02-12T11:32:48.435Z,434.2
2023-02-12T11:33:50.950Z,433.9
2023-02-12T11:34:53.445Z,434.4
2023-02-12T11:35:55.969Z,434.2
2023-02-12T11:36:58.483Z,434.2
2023-02-12T11:38:00.776Z,434.6
2023-02-12T11:39:03.304Z,434.4
2023-02-12T11:40:05.606Z,434.7
2023-02-12T11:41:08.158Z,434.3
2023-02-12T11:42:10.389Z,434.5
2023-02-12T11:43:12.920Z,434.6
2023-02-12T11:44:15.452Z,435
2023-02-12T11:45:17.977Z,434.6
2023-02-12T11:46:20.852Z,434.3
2023-02-12T11:47:23.383Z,434.8
2023-02-12T11:48:26.084Z,434.6
2023-02-12T11:49:28.342Z,434.7
2023-02-12T11:50:30.304Z,434.6
2023-02-12T11:51:32.824Z,434.6
2023-02-12T11:52:35.064Z,435.2
2023-02-12T11:53:37.597Z,435.3
2023-02-12T11:54:39.883Z,434.9
2023-02-12T11:55:42.455Z,434.7
2023-02-12T11:56:44.982Z,434.9
2023-02-12T11:57:47.256Z,434.6
2023-02-12T11:58:49.830Z,434.7
2023-02-12T11:59:52.351Z,434.7
2023-02-12T12:00:54.614Z,434.9
2023-02-12T12:01:57.480Z,435.3
2023-02-12T12:02:59.953Z,435.4
2023-02-12T12:04:02.554Z,435.2
2023-02-12T12:05:04.756Z,435.5
2023-02-12T12:06:07.272Z,435.3
2023-02-12T12:07:09.476Z,435.6
2023-02-12T12:08:11.998Z,435.9
2023-02-12T12:09:13.952Z,435.4
2023-02-12T12:10:16.494Z,435.8
2023-02-12T12:11:18.707Z,435.8
2023-02-12T12:12:21.219Z,435.9
2023-02-12T12:14:30.103Z,435.7
2023-02-12T12:15:32.379Z,435.9
2023-02-12T12:16:35.192Z,436
2023-02-12T12:17:37.737Z,435.7
2023-02-12T12:18:39.703Z,436
2023-02-12T12:19:42.245Z,435.8
2023-02-12T12:20:44.753Z,435.8
2023-02-12T12:21:47.264Z,436.4
2023-02-12T12:22:49.776Z,436.2
2023-02-12T12:23:52.278Z,436.1
2023-02-12T12:24:54.818Z,436.1
2023-02-12T12:25:58.988Z,436.8
2023-02-12T12:27:01.647Z,436.8
2023-02-12T12:28:04.522Z,436.7
2023-02-12T12:29:07.004Z,437.1
2023-02-12T12:30:12.592Z,436.9
2023-02-12T12:31:15.363Z,436.9
2023-02-12T12:32:17.375Z,437.6
2023-02-12T12:33:19.866Z,437.1
2023-02-12T12:34:22.401Z,437.4
2023-02-12T12:35:24.927Z,437
2023-02-12T12:36:26.644Z,437.2
2023-02-12T12:37:28.877Z,437.4
2023-02-12T12:38:30.819Z,437.9
2023-02-12T12:39:33.323Z,438.3
2023-02-12T12:40:35.589Z,438.3
2023-02-12T12:41:37.851Z,438.4
2023-02-12T12:42:40.341Z,438.8
2023-02-12T12:43:42.569Z,438.5
2023-02-12T12:44:44.537Z,439
2023-02-12T12:45:47.519Z,438.8
2023-02-12T12:46:50.071Z,438.7
2023-02-12T12:47:52.027Z,438.5
2023-02-12T12:48:54.374Z,438.8
2023-02-12T12:49:56.867Z,438.8
2023-02-12T12:50:59.437Z,438.6
2023-02-12T12:52:01.709Z,439
2023-02-12T12:53:04.295Z,438.8
2023-02-12T12:54:06.805Z,438.4
2023-02-12T12:55:09.334Z,438.8
2023-02-12T12:56:11.880Z,438.9
2023-02-12T12:57:14.123Z,439
2023-02-12T12:58:16.653Z,438.9
2023-02-12T12:59:18.888Z,438.5
2023-02-12T13:01:28.529Z,439.1
2023-02-12T13:02:31.237Z,438.7
2023-02-12T13:03:33.771Z,438.7
2023-02-12T13:04:36.285Z,439.2
2023-02-12T13:05:38.242Z,439.3
2023-02-12T13:06:40.775Z,439.3
2023-02-12T13:07:43.001Z,439.8
2023-02-12T13:08:45.565Z,439.4
2023-02-12T13:09:48.056Z,439.8
2023-02-12T13:10:50.033Z,439.8
2023-02-12T13:11:52.290Z,439.6
2023-02-12T13:12:54.297Z,439.7
2023-02-12T13:13:56.806Z,439.4
2023-02-12T13:14:59.334Z,439.5
2023-02-12T13:16:01.894Z,439.2
2023-02-12T13:17:04.432Z,439.6
2023-02-12T13:18:06.990Z,439.8
2023-02-12T13:19:09.243Z,439.7
2023-02-12T13:20:11.499Z,439.7
2023-02-12T13:21:14.015Z,439.9
2023-02-12T13:22:16.548Z,439.9
2023-02-12T13:23:18.808Z,440
2023-02-12T13:24:21.323Z,440.1
2023-02-12T13:25:23.834Z,439.9
2023-02-12T13:26:26.079Z,440
2023-02-12T13:27:28.592Z,440.2
2023-02-12T13:28:31.504Z,439.6
2023-02-12T13:29:34.025Z,440.2
2023-02-12T13:30:36.480Z,440
2023-02-12T13:31:39.465Z,439.9
2023-02-12T13:32:41.741Z,439.8
2023-02-12T13:33:44.122Z,440.3
2023-02-12T13:34:46.639Z,440.3